Time;durP1;ratioP1;P1;durP2;ratioP2;P2;SDS_P1;SDS_P2;PMS_P1;PMS_P2;Temp;Humidity;BMP_temperature;BMP_pressure;BME280_temperature;BME280_humidity;BME280_pressure;Samples;Min_cycle;Max_cycle;Signal;HPM_P1;HPM_P2
2023/11/11 00:00:32;;;;;;;41.80;20.92;;;;;;;10.61;95.18;99212.06;5059097;28;20028;-66
2023/11/11 00:02:57;;;;;;;44.53;24.45;;;;;;;10.44;97.25;99213.97;5057663;28;20439;-66
2023/11/11 00:05:24;;;;;;;42.13;23.05;;;;;;;10.54;96.21;99222.50;5058606;28;20023;-66
2023/11/11 00:07:51;;;;;;;40.15;24.33;;;;;;;10.54;96.33;99214.56;5056833;28;20204;-66
2023/11/11 00:10:17;;;;;;;33.97;19.35;;;;;;;10.56;95.89;99225.00;5057687;28;20095;-66
2023/11/11 00:12:43;;;;;;;33.00;17.15;;;;;;;10.55;96.26;99221.50;5057887;28;20386;-66
2023/11/11 00:32:38;;;;;;;37.55;17.73;;;;;;;11.16;92.18;99177.34;5112469;27;20894;-63
2023/11/11 00:35:07;;;;;;;28.33;17.15;;;;;;;11.06;92.39;99154.75;5113095;28;20035;-63
2023/11/11 00:37:33;;;;;;;33.20;17.52;;;;;;;10.70;94.70;99165.16;5113438;28;20032;-64
2023/11/11 00:39:59;;;;;;;30.00;17.25;;;;;;;10.74;94.54;99146.09;5114151;28;20312;-63
2023/11/11 00:42:24;;;;;;;30.55;17.80;;;;;;;10.75;94.13;99141.63;5114368;28;20359;-63
2023/11/11 00:44:50;;;;;;;30.80;17.35;;;;;;;10.76;94.96;99130.03;5114641;28;20040;-63
2023/11/11 00:47:16;;;;;;;33.50;16.83;;;;;;;10.82;94.29;99135.44;5113427;28;20039;-64
2023/11/11 00:49:42;;;;;;;27.63;15.80;;;;;;;10.79;93.89;99117.25;5113498;28;20082;-63
2023/11/11 00:52:08;;;;;;;26.65;16.20;;;;;;;10.70;93.55;99113.03;5113441;28;20319;-64
2023/11/11 00:54:34;;;;;;;29.10;17.58;;;;;;;10.60;93.82;99125.69;5114122;28;20023;-63
2023/11/11 00:57:00;;;;;;;28.73;15.52;;;;;;;10.54;94.38;99132.50;5113472;28;20035;-64
2023/11/11 00:59:30;;;;;;;31.85;17.98;;;;;;;10.54;95.00;99142.28;5114258;28;20034;-64
2023/11/11 01:01:58;;;;;;;31.50;18.02;;;;;;;10.54;95.29;99136.97;5113699;28;20032;-64
2023/11/11 01:04:24;;;;;;;31.10;17.55;;;;;;;10.54;95.53;99148.38;5113833;28;20032;-63
2023/11/11 01:06:50;;;;;;;27.95;16.40;;;;;;;10.59;95.32;99149.69;5113637;28;20046;-63
2023/11/11 01:09:15;;;;;;;30.35;16.50;;;;;;;10.60;94.65;99138.91;5113748;28;20046;-63
2023/11/11 01:11:41;;;;;;;30.30;17.58;;;;;;;10.56;95.70;99105.84;5113203;28;20043;-63
2023/11/11 01:14:07;;;;;;;27.13;16.25;;;;;;;10.59;94.60;99088.78;5113837;28;20897;-63
2023/11/11 01:16:33;;;;;;;28.25;16.73;;;;;;;10.50;95.16;99080.91;5111065;28;20040;-64
2023/11/11 01:18:58;;;;;;;28.85;17.35;;;;;;;9.84;97.88;99077.00;5110375;28;20046;-63
2023/11/11 01:21:24;;;;;;;31.73;17.77;;;;;;;9.56;100.00;99067.88;5110009;28;20440;-63
2023/11/11 01:23:50;;;;;;;33.47;18.58;;;;;;;9.84;100.00;99092.88;5110639;28;20258;-64
2023/11/11 01:26:16;;;;;;;34.35;19.63;;;;;;;9.98;100.00;99091.31;5110859;28;20051;-64
2023/11/11 01:28:43;;;;;;;31.20;18.92;;;;;;;9.96;99.67;99084.53;5109911;28;20333;-63
2023/11/11 01:31:08;;;;;;;31.77;18.20;;;;;;;9.89;100.00;99098.47;5110276;28;20108;-62
2023/11/11 01:33:34;;;;;;;31.27;19.08;;;;;;;9.84;100.00;99092.03;5095461;28;20040;-63
2023/11/11 01:36:01;;;;;;;30.83;18.90;;;;;;;9.94;100.00;99087.38;5096349;28;20051;-63
2023/11/11 01:38:27;;;;;;;31.42;17.90;;;;;;;10.04;100.00;99095.91;5095157;28;20058;-63
2023/11/11 01:40:52;;;;;;;31.88;18.58;;;;;;;10.02;99.65;99094.44;5096032;28;20044;-63
2023/11/11 01:43:18;;;;;;;32.53;19.23;;;;;;;10.05;99.85;99092.25;5095976;28;20032;-63
2023/11/11 01:45:44;;;;;;;32.80;18.70;;;;;;;9.94;100.00;99100.59;5095681;28;20040;-63
2023/11/11 01:48:16;;;;;;;29.42;18.15;;;;;;;10.06;99.69;99103.66;5096355;28;20032;-63
2023/11/11 01:50:42;;;;;;;37.85;19.63;;;;;;;10.01;100.00;99098.88;5096534;28;20245;-64
2023/11/11 01:53:10;;;;;;;30.80;18.08;;;;;;;9.93;100.00;99081.25;5096945;28;20024;-63
2023/11/11 01:55:36;;;;;;;31.85;17.92;;;;;;;10.02;99.79;99084.66;5096280;28;20032;-64
2023/11/11 01:58:02;;;;;;;33.28;18.23;;;;;;;10.06;100.00;99077.22;5096552;28;20028;-63
2023/11/11 02:00:32;;;;;;;31.33;18.65;;;;;;;10.13;98.85;99071.03;5095852;28;20072;-63
2023/11/11 02:02:58;;;;;;;27.65;17.55;;;;;;;10.18;98.92;99062.56;5096649;28;20027;-63
2023/11/11 02:05:24;;;;;;;36.80;18.85;;;;;;;10.15;99.02;99057.63;5096209;28;20348;-64
2023/11/11 02:07:50;;;;;;;30.80;18.73;;;;;;;10.07;98.33;99077.03;5096142;28;20028;-63
2023/11/11 02:10:16;;;;;;;27.88;17.42;;;;;;;10.11;97.63;99075.69;5095996;28;20047;-63
2023/11/11 02:12:42;;;;;;;37.50;18.33;;;;;;;10.19;97.55;99066.88;5094479;28;20027;-63
2023/11/11 02:15:13;;;;;;;31.67;18.08;;;;;;;10.20;96.74;99048.22;5096656;28;20070;-63
2023/11/11 02:17:40;;;;;;;33.45;19.38;;;;;;;10.24;96.20;99052.16;5096494;28;20032;-63
2023/11/11 02:20:10;;;;;;;33.17;19.17;;;;;;;10.31;95.47;99046.16;5094711;28;20059;-64
2023/11/11 02:22:35;;;;;;;32.35;18.55;;;;;;;10.31;94.87;99043.50;5095003;28;20028;-63
2023/11/11 02:25:04;;;;;;;30.05;17.58;;;;;;;10.30;94.72;99053.25;5094913;28;20036;-63
2023/11/11 02:27:31;;;;;;;35.63;19.23;;;;;;;10.20;95.18;99042.91;5095001;28;20356;-63
2023/11/11 02:29:56;;;;;;;35.58;20.17;;;;;;;10.02;95.20;99050.28;5093638;28;20035;-63
2023/11/11 02:32:22;;;;;;;29.48;18.23;;;;;;;10.09;95.27;99074.22;5095489;28;20226;-63
2023/11/11 02:34:47;;;;;;;35.75;18.42;;;;;;;9.98;95.20;99067.50;5095937;28;20032;-64
2023/11/11 02:37:13;;;;;;;35.30;19.00;;;;;;;9.85;96.38;99068.06;5095932;28;20029;-64
2023/11/11 02:39:38;;;;;;;34.75;18.88;;;;;;;9.93;95.65;99070.66;5095168;28;20028;-64
2023/11/11 02:42:04;;;;;;;31.98;16.95;;;;;;;9.84;96.40;99066.44;5095068;28;20073;-63
2023/11/11 02:44:29;;;;;;;31.42;17.20;;;;;;;9.82;96.84;99063.13;5094053;28;20056;-64
2023/11/11 02:46:55;;;;;;;29.75;17.75;;;;;;;9.88;96.43;99066.91;5094648;28;20040;-63
2023/11/11 02:49:20;;;;;;;30.63;17.00;;;;;;;9.88;96.07;99064.25;5094527;28;20028;-63
2023/11/11 02:51:45;;;;;;;28.98;16.70;;;;;;;9.83;95.78;99046.25;5094562;28;20419;-63
2023/11/11 02:54:11;;;;;;;31.35;16.17;;;;;;;9.70;97.01;99040.72;5095131;28;20039;-64
2023/11/11 02:56:36;;;;;;;29.90;16.92;;;;;;;9.51;97.02;99031.41;5095068;28;20034;-65
2023/11/11 02:59:02;;;;;;;30.52;17.70;;;;;;;9.54;95.44;99049.56;5125917;27;20039;-64
2023/11/11 03:01:34;;;;;;;32.58;18.27;;;;;;;9.48;95.78;99039.69;5094632;28;20036;-64
2023/11/11 03:04:00;;;;;;;33.53;18.25;;;;;;;9.48;96.81;99034.38;5095775;28;20333;-64
2023/11/11 03:06:25;;;;;;;33.15;18.05;;;;;;;9.49;96.55;99025.47;5095190;28;20036;-63
2023/11/11 03:08:50;;;;;;;29.00;17.30;;;;;;;9.21;95.58;99032.97;5094962;28;20040;-64
2023/11/11 03:11:16;;;;;;;33.15;18.48;;;;;;;9.28;94.50;99041.88;5094617;28;20036;-64
2023/11/11 03:13:41;;;;;;;33.60;17.83;;;;;;;9.17;96.89;99038.78;5094894;28;20028;-64
2023/11/11 03:16:07;;;;;;;27.52;16.75;;;;;;;9.24;98.08;99068.81;5094712;28;20036;-64
2023/11/11 03:18:32;;;;;;;31.13;16.80;;;;;;;9.24;97.82;99063.53;5094845;28;20040;-64
2023/11/11 03:20:58;;;;;;;28.42;16.70;;;;;;;9.24;97.80;99072.25;5094054;28;20047;-64
2023/11/11 03:23:23;;;;;;;30.42;17.95;;;;;;;9.25;99.05;99066.00;5095142;28;20039;-64
2023/11/11 03:25:49;;;;;;;28.70;17.45;;;;;;;9.38;98.90;99054.09;5095320;28;20036;-64
2023/11/11 03:28:14;;;;;;;33.88;18.08;;;;;;;9.45;98.54;99055.06;5094988;28;20036;-63
2023/11/11 03:30:40;;;;;;;29.25;16.95;;;;;;;9.46;98.88;99028.47;5094574;28;20054;-64
2023/11/11 03:33:06;;;;;;;33.58;18.20;;;;;;;9.48;98.69;99021.19;5095282;28;20059;-63
2023/11/11 03:35:31;;;;;;;30.02;16.58;;;;;;;9.50;97.44;99015.72;5094814;28;20352;-63
2023/11/11 03:37:57;;;;;;;30.00;17.38;;;;;;;9.35;96.20;99004.19;5094559;28;20050;-64
2023/11/11 03:40:23;;;;;;;32.85;18.10;;;;;;;9.41;95.55;98993.81;5094330;28;20027;-63
2023/11/11 03:42:49;;;;;;;29.70;17.02;;;;;;;9.41;96.29;98992.97;5095308;28;20038;-63
2023/11/11 03:45:14;;;;;;;30.77;17.42;;;;;;;9.19;95.30;98979.50;5094699;28;20055;-64
2023/11/11 03:47:40;;;;;;;25.63;15.88;;;;;;;9.28;93.33;98980.28;5094821;28;20036;-64
2023/11/11 03:50:06;;;;;;;28.38;16.63;;;;;;;9.19;94.16;98978.69;5093878;28;20062;-63
2023/11/11 03:52:32;;;;;;;27.70;15.30;;;;;;;9.30;93.82;98973.03;5094544;28;20032;-64
2023/11/11 03:54:57;;;;;;;30.17;18.05;;;;;;;9.29;93.95;98961.63;5094005;28;20238;-64
2023/11/11 03:57:23;;;;;;;33.97;17.33;;;;;;;9.32;93.18;98944.59;5093555;28;20054;-63
2023/11/11 03:59:49;;;;;;;28.48;17.02;;;;;;;9.23;94.53;98935.06;5094319;28;20772;-64
2023/11/11 04:02:15;;;;;;;33.28;19.23;;;;;;;9.08;96.24;98942.91;5093977;28;20099;-64
2023/11/11 04:04:41;;;;;;;34.50;18.80;;;;;;;9.23;96.17;98954.38;5094076;28;20232;-64
2023/11/11 04:07:07;;;;;;;31.08;17.10;;;;;;;9.29;94.31;98963.44;5093974;28;20039;-63
2023/11/11 04:09:33;;;;;;;30.90;17.92;;;;;;;9.25;94.37;98972.72;5093980;28;20267;-64
2023/11/11 04:11:59;;;;;;;34.90;19.25;;;;;;;9.23;94.45;98964.97;5093778;28;20055;-63
2023/11/11 04:14:26;;;;;;;37.13;20.23;;;;;;;9.23;95.25;98966.78;5093812;28;20333;-63
2023/11/11 04:16:52;;;;;;;33.28;19.10;;;;;;;9.13;95.51;98969.63;5094253;28;20039;-64
2023/11/11 04:19:18;;;;;;;31.33;18.33;;;;;;;8.82;97.61;98980.13;5095018;28;20082;-64
2023/11/11 04:21:48;;;;;;;35.88;20.48;;;;;;;8.69;98.73;98971.91;5093980;28;20309;-63
2023/11/11 04:24:13;;;;;;;36.63;19.17;;;;;;;8.72;99.12;98960.19;5093474;28;20032;-64
2023/11/11 04:26:39;;;;;;;36.88;19.60;;;;;;;8.84;99.46;98962.31;5093663;28;20038;-64
2023/11/11 04:29:04;;;;;;;41.80;20.05;;;;;;;8.89;99.03;98969.72;5093219;28;20089;-64
2023/11/11 04:31:29;;;;;;;38.05;19.45;;;;;;;8.93;98.59;98984.22;5094165;28;20282;-63
2023/11/11 04:33:55;;;;;;;33.80;18.63;;;;;;;8.95;98.45;98972.50;5093905;28;20319;-64
2023/11/11 04:36:22;;;;;;;34.30;18.75;;;;;;;8.99;98.18;98972.16;5093158;28;20071;-63
2023/11/11 04:38:49;;;;;;;33.67;19.60;;;;;;;8.82;99.67;98960.84;5091882;28;20078;-63
2023/11/11 04:41:16;;;;;;;34.72;17.80;;;;;;;8.82;99.62;98969.56;5093390;28;20032;-63
2023/11/11 04:43:41;;;;;;;33.65;19.80;;;;;;;8.85;98.90;98984.25;5093840;28;20236;-63
2023/11/11 04:46:07;;;;;;;37.80;22.13;;;;;;;8.88;99.12;98991.84;5094314;28;20047;-65
2023/11/11 04:48:32;;;;;;;30.98;18.38;;;;;;;8.88;99.47;98991.84;5094431;28;20274;-64
2023/11/11 04:50:59;;;;;;;33.67;20.30;;;;;;;8.96;99.75;98973.31;5092642;28;20539;-64
2023/11/11 04:53:25;;;;;;;33.33;19.90;;;;;;;8.92;99.78;98978.13;5092487;28;20420;-64
2023/11/11 04:55:52;;;;;;;30.48;17.60;;;;;;;9.06;99.92;98959.91;5093461;28;20263;-63
2023/11/11 04:58:17;;;;;;;33.15;18.25;;;;;;;9.13;99.28;98939.75;5094071;28;20273;-63
2023/11/11 05:00:44;;;;;;;31.08;17.70;;;;;;;9.19;98.62;98946.97;5095185;28;20035;-63
2023/11/11 05:03:10;;;;;;;35.28;19.13;;;;;;;9.06;99.33;98954.63;5092937;28;20097;-63
2023/11/11 05:05:35;;;;;;;36.58;19.05;;;;;;;9.05;98.52;98956.47;5093501;28;20344;-63
2023/11/11 05:08:02;;;;;;;34.78;19.33;;;;;;;9.05;98.25;98947.72;5097283;28;20590;-64
2023/11/11 05:10:31;;;;;;;46.03;25.08;;;;;;;9.01;98.11;98933.22;5099853;28;20035;-64
2023/11/11 05:12:57;;;;;;;43.15;27.50;;;;;;;9.03;97.89;98954.97;5099530;28;20028;-63
2023/11/11 05:15:24;;;;;;;35.70;21.25;;;;;;;8.98;98.12;98950.22;5099543;28;20065;-63
2023/11/11 05:17:50;;;;;;;30.50;19.08;;;;;;;9.09;98.33;98951.66;5099927;28;20028;-64
2023/11/11 05:20:17;;;;;;;32.03;18.88;;;;;;;9.21;97.52;98948.47;5099285;28;20345;-63
2023/11/11 05:22:43;;;;;;;28.75;18.40;;;;;;;9.26;96.70;98956.69;5100897;28;20028;-63
2023/11/11 05:25:12;;;;;;;29.38;18.17;;;;;;;9.26;96.17;98938.19;5099901;28;20375;-63
2023/11/11 05:27:37;;;;;;;30.67;18.33;;;;;;;9.20;96.73;98951.28;5100096;28;20036;-64
2023/11/11 05:30:04;;;;;;;33.45;19.77;;;;;;;9.21;96.60;98959.03;5098211;28;20039;-64
2023/11/11 05:32:30;;;;;;;33.63;19.08;;;;;;;9.26;96.61;98969.06;5099820;28;20055;-64
2023/11/11 05:34:57;;;;;;;35.15;19.40;;;;;;;9.31;96.54;98958.00;5100025;28;20040;-65
2023/11/11 05:37:27;;;;;;;32.08;19.80;;;;;;;9.19;96.65;98945.16;5099057;28;20073;-64
2023/11/11 05:39:52;;;;;;;37.63;21.00;;;;;;;9.31;96.93;98947.41;5099929;28;20040;-63
2023/11/11 05:42:18;;;;;;;42.03;23.70;;;;;;;9.28;97.41;98949.41;5099083;28;20378;-64
2023/11/11 05:44:44;;;;;;;37.72;23.15;;;;;;;9.26;98.09;98966.44;5098425;28;20152;-63
2023/11/11 05:47:09;;;;;;;41.25;25.85;;;;;;;9.35;97.91;98965.41;5099325;28;20125;-63
2023/11/11 05:49:35;;;;;;;44.13;25.38;;;;;;;9.36;98.21;98956.47;5099537;28;20032;-63
2023/11/11 05:52:01;;;;;;;40.70;22.92;;;;;;;9.42;98.51;98933.84;5099421;28;20082;-64
2023/11/11 05:54:27;;;;;;;40.05;22.50;;;;;;;9.50;98.28;98923.22;5098990;28;20261;-63
2023/11/11 05:56:53;;;;;;;33.75;20.35;;;;;;;9.56;97.89;98915.41;5099668;28;20036;-64
2023/11/11 05:59:18;;;;;;;33.83;19.95;;;;;;;9.63;97.33;98906.78;5099280;28;20038;-63
2023/11/11 06:01:47;;;;;;;32.70;19.25;;;;;;;9.64;97.61;98919.00;5099330;28;20032;-63
2023/11/11 06:04:14;;;;;;;31.80;20.35;;;;;;;9.65;97.37;98923.28;5098496;28;20043;-63
2023/11/11 06:06:42;;;;;;;34.47;20.17;;;;;;;9.67;97.77;98940.63;5098581;28;20036;-63
2023/11/11 06:09:14;;;;;;;38.28;20.55;;;;;;;9.59;98.03;98938.84;5099115;28;20087;-63
2023/11/11 06:11:46;;;;;;;36.95;20.38;;;;;;;9.63;97.44;98951.72;5099535;28;20047;-64
2023/11/11 06:14:18;;;;;;;34.83;20.67;;;;;;;9.49;98.64;98967.31;5099398;28;20095;-63
2023/11/11 06:16:44;;;;;;;33.03;18.23;;;;;;;9.30;100.00;98951.88;5099512;28;20035;-64
2023/11/11 06:19:10;;;;;;;30.85;19.25;;;;;;;9.34;100.00;98955.81;5100145;28;20225;-63
2023/11/11 06:21:35;;;;;;;33.00;20.40;;;;;;;9.45;100.00;98946.72;5099428;28;20055;-64
2023/11/11 06:24:01;;;;;;;36.45;21.27;;;;;;;9.46;100.00;98949.19;5098374;28;20333;-63
2023/11/11 06:26:28;;;;;;;37.33;21.42;;;;;;;9.55;99.99;98955.25;5099790;28;20043;-64
2023/11/11 06:28:57;;;;;;;38.05;22.08;;;;;;;9.59;100.00;98944.16;5099959;28;20036;-64
2023/11/11 06:31:23;;;;;;;35.13;20.50;;;;;;;9.59;99.63;98960.00;5098582;28;20115;-63
2023/11/11 06:33:50;;;;;;;37.38;21.67;;;;;;;9.66;99.67;98949.56;5099091;28;20048;-63
2023/11/11 06:36:16;;;;;;;37.72;22.27;;;;;;;9.72;99.27;98958.59;5098824;28;20047;-64
2023/11/11 06:38:42;;;;;;;39.75;21.45;;;;;;;9.60;100.00;98972.22;5093990;28;20292;-63
2023/11/11 06:41:08;;;;;;;36.40;21.40;;;;;;;9.37;100.00;98963.44;5090164;28;20044;-63
2023/11/11 06:43:34;;;;;;;39.70;20.92;;;;;;;9.05;100.00;98956.47;5091045;28;20024;-63
2023/11/11 06:46:00;;;;;;;34.38;19.40;;;;;;;9.02;100.00;98926.94;5084516;28;20098;-64
2023/11/11 06:48:29;;;;;;;30.63;17.05;;;;;;;8.89;100.00;98924.84;5082837;28;20348;-63
2023/11/11 06:50:54;;;;;;;33.42;17.98;;;;;;;9.09;100.00;98930.53;5081346;28;20284;-64
2023/11/11 06:53:20;;;;;;;38.83;19.30;;;;;;;9.32;100.00;98938.50;5082660;28;20070;-63
2023/11/11 06:55:48;;;;;;;27.45;18.63;;;;;;;9.27;100.00;98937.19;5080909;28;20054;-64
2023/11/11 06:58:16;;;;;;;28.23;17.00;;;;;;;8.84;100.00;98920.06;5082010;28;20371;-64
2023/11/11 07:00:42;;;;;;;30.00;17.15;;;;;;;8.90;100.00;98924.66;5080950;28;20040;-63
2023/11/11 07:03:08;;;;;;;28.35;16.65;;;;;;;8.90;100.00;98940.50;5083607;28;20115;-63
2023/11/11 07:05:35;;;;;;;33.88;22.15;;;;;;;9.02;100.00;98948.06;5088315;28;20103;-64
2023/11/11 07:08:02;;;;;;;28.20;17.80;;;;;;;9.11;100.00;98939.09;5080869;28;20081;-63
2023/11/11 07:10:30;;;;;;;31.20;19.08;;;;;;;9.17;100.00;98947.16;5081322;28;20040;-63
2023/11/11 07:12:56;;;;;;;30.65;18.35;;;;;;;9.24;100.00;98961.31;5080330;28;20186;-63
2023/11/11 07:15:21;;;;;;;29.20;17.25;;;;;;;9.42;100.00;98966.38;5080371;28;20067;-63
2023/11/11 07:17:47;;;;;;;26.50;16.00;;;;;;;9.46;100.00;98962.41;5081399;28;20056;-63
2023/11/11 07:20:12;;;;;;;27.42;18.50;;;;;;;9.42;100.00;98963.75;5080204;28;20360;-64
2023/11/11 07:22:38;;;;;;;29.80;17.52;;;;;;;9.49;100.00;98972.63;5080813;28;20138;-63
2023/11/11 07:25:05;;;;;;;26.10;15.52;;;;;;;9.40;100.00;98957.81;5080408;28;20402;-63
2023/11/11 07:27:33;;;;;;;31.67;18.77;;;;;;;9.30;100.00;98943.97;5089382;28;20095;-64
2023/11/11 07:29:59;;;;;;;27.73;17.80;;;;;;;9.43;100.00;98941.59;5079702;28;20040;-63
2023/11/11 07:32:25;;;;;;;26.95;16.10;;;;;;;9.38;100.00;98943.13;5080330;28;20317;-63
2023/11/11 07:34:51;;;;;;;31.52;20.17;;;;;;;9.43;100.00;98952.16;5080696;28;20024;-63
2023/11/11 07:37:17;;;;;;;28.75;17.70;;;;;;;9.37;100.00;98942.28;5080605;28;20043;-63
2023/11/11 07:39:43;;;;;;;24.88;15.93;;;;;;;9.34;100.00;98915.38;5089466;28;20032;-63
2023/11/11 07:42:08;;;;;;;29.40;19.30;;;;;;;9.45;100.00;98920.28;5089049;28;20062;-63
2023/11/11 07:44:34;;;;;;;29.20;19.95;;;;;;;9.33;100.00;98917.19;5082380;28;20368;-64
2023/11/11 07:47:00;;;;;;;26.98;15.68;;;;;;;9.43;100.00;98930.22;5081351;28;20142;-64
2023/11/11 07:49:26;;;;;;;26.05;15.48;;;;;;;9.48;100.00;98941.06;5090461;28;20587;-63
2023/11/11 07:51:51;;;;;;;28.17;16.48;;;;;;;9.40;100.00;98943.78;5081157;28;20040;-64
2023/11/11 07:54:17;;;;;;;33.17;20.48;;;;;;;9.52;100.00;98947.66;5081615;28;20028;-63
2023/11/11 07:56:42;;;;;;;61.92;38.85;;;;;;;9.61;100.00;98949.25;5082224;28;20040;-64
2023/11/11 07:59:08;;;;;;;48.95;30.73;;;;;;;9.62;100.00;98950.06;5080579;28;20032;-64
2023/11/11 08:01:33;;;;;;;43.72;28.92;;;;;;;9.68;100.00;98952.00;5080814;28;20045;-63
2023/11/11 08:03:59;;;;;;;39.95;23.65;;;;;;;9.81;100.00;98947.78;5080768;28;20040;-64
2023/11/11 08:06:25;;;;;;;49.92;32.80;;;;;;;9.78;100.00;98934.91;5080123;28;20103;-64
2023/11/11 08:08:53;;;;;;;42.50;29.58;;;;;;;9.83;100.00;98911.41;5081291;28;20062;-63
2023/11/11 08:11:19;;;;;;;40.70;27.10;;;;;;;9.80;100.00;98885.34;5080516;28;20273;-64
2023/11/11 08:13:45;;;;;;;28.70;20.10;;;;;;;9.82;100.00;98887.81;5080983;28;20025;-64
2023/11/11 08:16:11;;;;;;;30.85;18.83;;;;;;;9.80;100.00;98869.47;5080569;28;20249;-63
2023/11/11 08:18:37;;;;;;;28.00;17.55;;;;;;;9.81;100.00;98870.28;5080972;28;20032;-63
2023/11/11 08:21:03;;;;;;;29.15;17.25;;;;;;;9.87;100.00;98865.13;5080601;28;20061;-63
2023/11/11 08:23:32;;;;;;;33.22;18.73;;;;;;;9.81;100.00;98865.81;5087296;28;20103;-65
2023/11/11 08:25:58;;;;;;;29.13;17.40;;;;;;;9.77;100.00;98883.03;5079876;28;20037;-64
2023/11/11 08:28:23;;;;;;;31.77;19.40;;;;;;;9.87;100.00;98893.38;5079977;28;20021;-62
2023/11/11 08:30:49;;;;;;;29.80;18.65;;;;;;;9.98;100.00;98898.25;5079600;28;20346;-64
2023/11/11 08:33:17;;;;;;;31.40;18.70;;;;;;;10.07;100.00;98894.53;5080315;28;20497;-64
2023/11/11 08:35:43;;;;;;;30.30;18.70;;;;;;;10.15;100.00;98896.28;5089397;28;20097;-62
2023/11/11 08:38:09;;;;;;;33.08;20.33;;;;;;;10.10;100.00;98886.22;5086000;28;20377;-62
2023/11/11 08:40:34;;;;;;;37.67;24.38;;;;;;;10.10;100.00;98877.47;5082003;28;20044;-63
2023/11/11 08:43:00;;;;;;;36.70;22.73;;;;;;;10.15;100.00;98870.63;5082876;28;20036;-62
2023/11/11 08:45:25;;;;;;;37.42;22.30;;;;;;;10.15;100.00;98868.00;5084934;28;20048;-62
2023/11/11 08:47:50;;;;;;;32.38;20.35;;;;;;;10.04;100.00;98860.50;5093727;28;20044;-63
2023/11/11 08:50:16;;;;;;;29.80;19.67;;;;;;;10.02;100.00;98866.97;5083494;28;20531;-62
2023/11/11 08:52:41;;;;;;;38.25;22.75;;;;;;;10.10;100.00;98866.88;5085080;28;20032;-62
2023/11/11 08:55:07;;;;;;;34.65;21.15;;;;;;;10.17;100.00;98892.44;5084614;28;20048;-62
2023/11/11 08:57:33;;;;;;;34.42;18.90;;;;;;;10.11;100.00;98893.16;5085591;28;20033;-63
2023/11/11 08:59:59;;;;;;;32.30;18.75;;;;;;;10.12;100.00;98872.81;5086205;28;20103;-63
2023/11/11 09:02:24;;;;;;;25.05;15.43;;;;;;;9.99;100.00;98843.53;5092247;28;20256;-64
2023/11/11 09:04:52;;;;;;;23.40;13.90;;;;;;;9.59;100.00;98822.56;5084348;28;20359;-63
2023/11/11 09:07:19;;;;;;;26.65;15.07;;;;;;;8.86;100.00;98775.53;5084291;28;20032;-65
2023/11/11 09:09:44;;;;;;;34.85;18.50;;;;;;;8.25;100.00;98720.88;5084587;28;20068;-65
2023/11/11 09:12:10;;;;;;;30.83;14.90;;;;;;;7.90;100.00;98666.84;5083686;28;20249;-63
2023/11/11 09:14:35;;;;;;;40.78;23.15;;;;;;;7.99;100.00;98671.91;5092921;28;20028;-63
2023/11/11 09:17:01;;;;;;;46.78;24.48;;;;;;;7.79;100.00;98657.50;5092668;28;20046;-63
2023/11/11 09:19:26;;;;;;;47.33;25.48;;;;;;;7.82;100.00;98658.97;5084075;28;20102;-64
2023/11/11 09:21:52;;;;;;;44.15;23.42;;;;;;;7.81;100.00;98641.50;5084349;28;20145;-63
2023/11/11 09:24:17;;;;;;;54.28;28.38;;;;;;;7.88;100.00;98655.66;5083627;28;20086;-64
2023/11/11 09:26:43;;;;;;;49.10;27.10;;;;;;;8.01;100.00;98674.38;5083628;28;20689;-63
2023/11/11 09:29:08;;;;;;;49.20;27.35;;;;;;;8.04;100.00;98679.28;5083846;28;20333;-63
2023/11/11 09:31:34;;;;;;;48.35;26.00;;;;;;;8.19;100.00;98671.47;5084083;28;20045;-62
2023/11/11 09:34:02;;;;;;;46.17;24.75;;;;;;;8.39;100.00;98683.28;5083754;28;20257;-63
2023/11/11 09:36:28;;;;;;;41.70;22.05;;;;;;;8.61;100.00;98693.03;5092574;28;20218;-63
2023/11/11 09:38:54;;;;;;;38.25;20.20;;;;;;;8.82;100.00;98702.16;5084003;28;20055;-63
2023/11/11 09:41:20;;;;;;;43.03;22.17;;;;;;;8.98;100.00;98709.13;5083465;28;20044;-62
2023/11/11 09:43:46;;;;;;;37.70;21.42;;;;;;;9.17;100.00;98717.38;5083384;28;20063;-63
2023/11/11 09:46:15;;;;;;;31.23;19.20;;;;;;;9.40;100.00;98727.13;5083116;28;20043;-62
2023/11/11 09:48:41;;;;;;;38.78;21.05;;;;;;;9.56;100.00;98719.84;5083416;28;20059;-63
2023/11/11 09:51:12;;;;;;;40.35;23.02;;;;;;;9.35;100.00;98695.09;5083339;28;20079;-63
2023/11/11 09:53:40;;;;;;;37.65;21.70;;;;;;;9.38;100.00;98689.47;5082693;28;20028;-63
2023/11/11 09:56:07;;;;;;;67.28;31.50;;;;;;;9.51;100.00;98693.16;5082948;28;20040;-63
2023/11/11 09:58:34;;;;;;;49.90;27.02;;;;;;;9.73;100.00;98702.00;5082536;28;20044;-63
2023/11/11 10:01:00;;;;;;;102.40;40.70;;;;;;;9.84;100.00;98714.75;5082884;28;20051;-62
2023/11/11 10:03:25;;;;;;;48.72;24.90;;;;;;;10.01;100.00;98698.72;5083189;28;20036;-63
2023/11/11 10:05:51;;;;;;;41.10;24.25;;;;;;;10.09;100.00;98680.09;5082710;28;20041;-63
2023/11/11 10:08:16;;;;;;;51.10;27.70;;;;;;;10.19;100.00;98680.63;5091826;28;20036;-64
2023/11/11 10:10:42;;;;;;;42.80;24.50;;;;;;;10.23;100.00;98664.22;5083593;28;20041;-61
2023/11/11 10:13:07;;;;;;;75.53;34.38;;;;;;;10.16;100.00;98668.59;5083166;28;20215;-63
2023/11/11 10:15:33;;;;;;;75.80;34.58;;;;;;;10.15;100.00;98647.63;5083249;28;20044;-62
2023/11/11 10:18:00;;;;;;;55.13;29.83;;;;;;;10.28;100.00;98637.22;5082093;28;20040;-62
2023/11/11 10:20:30;;;;;;;40.97;22.35;;;;;;;10.40;100.00;98687.81;5083084;28;20050;-63
2023/11/11 10:22:56;;;;;;;74.78;45.20;;;;;;;10.53;100.00;98702.03;5084771;28;20062;-65
2023/11/11 10:25:22;;;;;;;48.22;28.65;;;;;;;10.57;100.00;98694.56;5082412;28;20318;-64
2023/11/11 10:27:53;;;;;;;43.63;24.88;;;;;;;10.65;100.00;98672.44;5083075;28;20032;-61
2023/11/11 10:30:24;;;;;;;34.88;20.65;;;;;;;10.67;100.00;98643.94;5082483;28;20337;-63
2023/11/11 10:32:50;;;;;;;50.58;23.55;;;;;;;10.67;100.00;98639.47;5089641;28;20336;-62
2023/11/11 10:35:17;;;;;;;191.65;71.68;;;;;;;10.54;100.00;98639.34;5084053;28;20040;-63
2023/11/11 10:37:43;;;;;;;64.40;29.05;;;;;;;10.60;100.00;98637.75;5083014;28;20047;-63
2023/11/11 10:40:09;;;;;;;154.93;107.88;;;;;;;10.70;100.00;98641.75;5083072;28;20044;-65
2023/11/11 10:42:35;;;;;;;40.75;22.10;;;;;;;10.45;100.00;98637.81;5083301;28;20040;-64
2023/11/11 10:45:02;;;;;;;34.53;19.73;;;;;;;10.57;100.00;98616.97;5083467;28;20051;-63
2023/11/11 10:47:29;;;;;;;36.65;19.67;;;;;;;10.15;100.00;98595.53;5082557;28;20250;-63
2023/11/11 10:49:57;;;;;;;33.90;18.75;;;;;;;10.09;100.00;98583.06;5081577;28;20028;-64
2023/11/11 10:52:24;;;;;;;35.78;19.65;;;;;;;10.05;100.00;98568.56;5080962;28;20035;-64
2023/11/11 10:54:56;;;;;;;37.67;21.17;;;;;;;10.08;100.00;98557.59;5082661;28;20032;-64
2023/11/11 10:57:23;;;;;;;41.28;24.10;;;;;;;9.90;100.00;98551.91;5081931;28;20032;-64
2023/11/11 10:59:49;;;;;;;49.67;26.67;;;;;;;9.95;100.00;98536.31;5082272;28;20283;-63
2023/11/11 11:02:14;;;;;;;53.05;28.42;;;;;;;10.09;100.00;98548.66;5080456;28;20432;-63
2023/11/11 11:04:46;;;;;;;45.97;24.60;;;;;;;10.26;100.00;98548.44;5090666;28;20040;-63
2023/11/11 11:07:16;;;;;;;42.42;23.60;;;;;;;10.38;100.00;98528.41;5080553;28;20024;-64
2023/11/11 11:10:08;;;;;;;42.25;22.13;;;;;;;10.51;100.00;98539.97;5081666;28;20040;-64
2023/11/11 11:13:03;;;;;;;45.40;23.08;;;;;;;10.71;100.00;98556.00;5081022;28;20060;-63
2023/11/11 11:15:28;;;;;;;38.40;20.83;;;;;;;10.80;100.00;98552.22;5079985;28;20455;-63
2023/11/11 11:17:54;;;;;;;42.58;22.15;;;;;;;10.83;100.00;98557.13;5079912;28;20040;-63
2023/11/11 11:20:25;;;;;;;37.25;21.20;;;;;;;11.02;100.00;98550.31;5080894;28;20043;-63
2023/11/11 11:22:57;;;;;;;36.47;19.98;;;;;;;10.89;100.00;98550.22;5091366;28;20043;-63
2023/11/11 11:25:44;;;;;;;34.35;19.90;;;;;;;10.98;100.00;98551.72;5081983;28;20179;-64
2023/11/11 11:28:09;;;;;;;38.25;20.65;;;;;;;11.12;100.00;98564.03;5081038;28;20387;-64
2023/11/11 11:30:39;;;;;;;45.45;27.17;;;;;;;11.15;100.00;98555.69;5089941;28;20064;-63
2023/11/11 11:33:06;;;;;;;55.22;33.60;;;;;;;11.17;100.00;98553.69;5081140;28;20029;-64